Time;durP1;ratioP1;P1;durP2;ratioP2;P2;SDS_P1;SDS_P2;PMS_P1;PMS_P2;Temp;Humidity;BMP_temperature;BMP_pressure;BME280_temperature;BME280_humidity;BME280_pressure;Samples;Min_cycle;Max_cycle;Signal;HPM_P1;HPM_P2
2021/06/27 00:01:24;;;;;;;;;;;18.20;99.90;;;;;;5023648;28;19910;-82
2021/06/27 00:03:50;;;;;;;;;;;18.30;99.90;;;;;;5023849;28;19906;-82
2021/06/27 00:06:15;;;;;;;;;;;18.20;99.90;;;;;;5021933;28;19905;-82
2021/06/27 00:08:41;;;;;;;;;;;18.20;99.90;;;;;;5023302;28;19909;-82
2021/06/27 00:11:07;;;;;;;;;;;18.10;99.90;;;;;;5021776;28;19959;-82
2021/06/27 00:13:34;;;;;;;;;;;18.10;99.90;;;;;;5020279;28;19906;-82
2021/06/27 00:15:59;;;;;;;;;;;18.00;99.90;;;;;;5020678;28;19905;-82
2021/06/27 00:18:25;;;;;;;;;;;18.00;99.90;;;;;;5019002;28;19916;-82
2021/06/27 00:20:52;;;;;;;;;;;17.90;99.90;;;;;;5018903;28;19910;-82
2021/06/27 00:23:19;;;;;;;;;;;17.90;99.90;;;;;;5018678;28;19972;-82
2021/06/27 00:25:45;;;;;;;;;;;17.90;99.90;;;;;;5019110;28;19905;-82
2021/06/27 00:28:10;;;;;;;;;;;17.90;99.90;;;;;;5020728;28;20284;-82
2021/06/27 00:30:37;;;;;;;;;;;17.90;99.90;;;;;;5020525;28;20391;-81
2021/06/27 00:33:03;;;;;;;;;;;17.80;99.90;;;;;;5020772;28;19963;-81
2021/06/27 00:35:29;;;;;;;;;;;17.90;99.90;;;;;;5019212;28;19905;-81
2021/06/27 00:37:55;;;;;;;;;;;17.90;99.90;;;;;;5021312;28;20430;-82
2021/06/27 00:40:22;;;;;;;;;;;17.90;99.90;;;;;;5019474;28;20386;-82
2021/06/27 00:42:48;;;;;;;;;;;17.80;99.90;;;;;;5018705;28;19967;-82
2021/06/27 00:45:15;;;;;;;;;;;17.80;99.90;;;;;;5018810;28;19949;-82
2021/06/27 00:47:41;;;;;;;;;;;17.70;99.90;;;;;;5018706;28;19905;-82
2021/06/27 00:50:09;;;;;;;;;;;17.70;99.90;;;;;;5018352;28;19909;-82
2021/06/27 00:52:35;;;;;;;;;;;17.70;99.90;;;;;;5018312;28;20032;-82
2021/06/27 00:55:00;;;;;;;;;;;17.60;99.90;;;;;;5018882;28;19940;-82
2021/06/27 00:57:26;;;;;;;;;;;17.60;99.90;;;;;;5019135;28;20009;-82
2021/06/27 00:59:51;;;;;;;;;;;17.60;99.90;;;;;;5018823;28;19932;-82
2021/06/27 01:02:16;;;;;;;;;;;17.60;99.90;;;;;;5018518;28;19905;-82
2021/06/27 01:04:42;;;;;;;;;;;17.60;99.90;;;;;;5018682;28;19914;-81
2021/06/27 01:07:08;;;;;;;;;;;17.60;99.90;;;;;;5018623;28;20019;-82
2021/06/27 01:09:34;;;;;;;;;;;17.60;99.90;;;;;;5019081;28;20395;-82
2021/06/27 01:11:59;;;;;;;;;;;17.60;99.90;;;;;;5017891;28;19907;-82
2021/06/27 01:14:25;;;;;;;;;;;17.60;99.90;;;;;;5019114;28;20284;-82
2021/06/27 01:16:51;;;;;;;;;;;17.60;99.90;;;;;;5022169;28;19905;-82
2021/06/27 01:19:17;;;;;;;;;;;17.60;99.90;;;;;;5022380;28;19915;-82
2021/06/27 01:21:42;;;;;;;;;;;17.60;99.90;;;;;;5022724;28;19949;-82
2021/06/27 01:24:08;;;;;;;;;;;17.50;99.90;;;;;;5022592;28;19912;-82
2021/06/27 01:26:33;;;;;;;;;;;17.60;99.90;;;;;;5023145;28;19910;-82
2021/06/27 01:28:59;;;;;;;;;;;17.50;99.90;;;;;;5021213;28;20388;-82
2021/06/27 01:31:26;;;;;;;;;;;17.50;99.90;;;;;;5022981;28;19929;-83
2021/06/27 01:33:51;;;;;;;;;;;17.40;99.90;;;;;;5021719;28;20273;-82
2021/06/27 01:36:17;;;;;;;;;;;17.40;99.90;;;;;;5021482;28;19905;-82
2021/06/27 01:38:42;;;;;;;;;;;17.30;99.90;;;;;;5020411;28;19913;-82
2021/06/27 01:41:08;;;;;;;;;;;17.40;99.90;;;;;;5022039;28;20386;-82
2021/06/27 01:43:33;;;;;;;;;;;17.40;99.90;;;;;;5018912;28;19935;-82
2021/06/27 01:46:01;;;;;;;;;;;17.40;99.90;;;;;;5024053;28;19989;-83
2021/06/27 01:48:27;;;;;;;;;;;17.30;99.90;;;;;;5020995;28;19905;-82
2021/06/27 01:50:54;;;;;;;;;;;17.30;99.90;;;;;;5021373;28;20261;-82
2021/06/27 01:53:21;;;;;;;;;;;17.30;99.90;;;;;;5020505;28;19913;-82
2021/06/27 01:55:47;;;;;;;;;;;17.20;99.90;;;;;;5020636;28;19905;-84
2021/06/27 01:58:13;;;;;;;;;;;17.10;99.90;;;;;;5014901;28;19913;-82
2021/06/27 02:00:38;;;;;;;;;;;17.10;99.90;;;;;;5020079;28;19912;-82
2021/06/27 02:03:04;;;;;;;;;;;17.10;99.90;;;;;;5017638;28;20356;-82
2021/06/27 02:05:31;;;;;;;;;;;17.00;99.90;;;;;;5015426;28;19940;-82
2021/06/27 02:07:58;;;;;;;;;;;17.00;99.90;;;;;;5013946;28;19913;-81
2021/06/27 02:10:24;;;;;;;;;;;17.00;99.90;;;;;;5016093;28;19905;-81
2021/06/27 02:12:50;;;;;;;;;;;17.00;99.90;;;;;;5016784;28;20404;-82
2021/06/27 02:15:16;;;;;;;;;;;16.90;99.90;;;;;;5014121;28;19945;-82
2021/06/27 02:17:48;;;;;;;;;;;16.90;99.90;;;;;;5013452;28;19917;-81
2021/06/27 02:20:14;;;;;;;;;;;16.90;99.90;;;;;;5013814;28;20129;-82
2021/06/27 02:22:40;;;;;;;;;;;16.90;99.90;;;;;;5013454;28;19905;-82
2021/06/27 02:25:05;;;;;;;;;;;16.90;99.90;;;;;;5013634;28;20000;-82
2021/06/27 02:27:31;;;;;;;;;;;16.80;99.90;;;;;;5013487;28;19909;-82
2021/06/27 02:29:56;;;;;;;;;;;16.80;99.90;;;;;;5013732;28;19905;-82
2021/06/27 02:32:22;;;;;;;;;;;16.80;99.90;;;;;;5013346;28;20467;-82
2021/06/27 02:34:48;;;;;;;;;;;16.80;99.90;;;;;;5014788;28;19905;-82
2021/06/27 02:37:13;;;;;;;;;;;16.80;99.90;;;;;;5014856;28;19996;-81
2021/06/27 02:39:39;;;;;;;;;;;16.80;99.90;;;;;;5013095;28;19909;-81
2021/06/27 02:42:05;;;;;;;;;;;16.70;99.90;;;;;;5013179;28;20360;-82
2021/06/27 02:44:30;;;;;;;;;;;16.70;99.90;;;;;;5013325;28;19913;-82
2021/06/27 02:46:56;;;;;;;;;;;16.70;99.90;;;;;;5013497;28;20364;-81
2021/06/27 02:49:23;;;;;;;;;;;16.70;99.90;;;;;;5014625;28;19940;-81
2021/06/27 02:51:49;;;;;;;;;;;16.70;99.90;;;;;;5013816;28;19906;-81
2021/06/27 02:54:14;;;;;;;;;;;16.60;99.90;;;;;;5012619;28;19912;-82
2021/06/27 02:56:40;;;;;;;;;;;16.60;99.90;;;;;;5012392;28;20280;-81
2021/06/27 02:59:05;;;;;;;;;;;16.60;99.90;;;;;;5012714;28;20006;-81
2021/06/27 03:01:31;;;;;;;;;;;16.60;99.90;;;;;;5013717;28;19906;-82
2021/06/27 03:03:56;;;;;;;;;;;16.60;99.90;;;;;;5012210;28;19905;-81
2021/06/27 03:06:22;;;;;;;;;;;16.60;99.90;;;;;;5012204;28;19905;-81
2021/06/27 03:08:47;;;;;;;;;;;16.60;99.90;;;;;;5012192;28;19911;-81
2021/06/27 03:11:13;;;;;;;;;;;16.60;99.90;;;;;;5012258;28;19909;-81
2021/06/27 03:13:39;;;;;;;;;;;16.60;99.90;;;;;;5011790;28;19928;-81
2021/06/27 03:16:05;;;;;;;;;;;16.70;99.90;;;;;;5012201;28;19906;-81
2021/06/27 03:18:31;;;;;;;;;;;16.70;99.90;;;;;;5011823;28;19909;-81
2021/06/27 03:20:56;;;;;;;;;;;16.80;99.90;;;;;;5012034;28;19905;-81
2021/06/27 03:23:22;;;;;;;;;;;16.80;99.90;;;;;;5011678;28;19944;-83
2021/06/27 03:25:47;;;;;;;;;;;16.80;99.90;;;;;;5013134;28;19907;-81
2021/06/27 03:28:13;;;;;;;;;;;16.90;99.90;;;;;;5011785;28;19932;-81
2021/06/27 03:30:38;;;;;;;;;;;16.90;99.90;;;;;;5011774;28;19912;-81
2021/06/27 03:33:05;;;;;;;;;;;16.90;99.90;;;;;;5011439;28;19905;-81
2021/06/27 03:35:31;;;;;;;;;;;16.90;99.90;;;;;;5011942;28;20262;-81
2021/06/27 03:40:42;;;;;;;;;;;16.90;99.90;;;;;;5013489;28;20280;-82
2021/06/27 03:43:07;;;;;;;;;;;16.90;99.90;;;;;;5011455;28;20284;-81
2021/06/27 03:45:33;;;;;;;;;;;16.90;99.90;;;;;;5011724;28;20012;-81
2021/06/27 03:47:58;;;;;;;;;;;16.90;99.90;;;;;;5011673;28;19905;-81
2021/06/27 03:50:24;;;;;;;;;;;16.90;99.90;;;;;;5013179;28;19905;-81
2021/06/27 03:52:50;;;;;;;;;;;16.90;99.90;;;;;;5011825;28;19906;-81
2021/06/27 03:55:16;;;;;;;;;;;17.00;99.90;;;;;;5011829;28;19906;-82
2021/06/27 03:57:42;;;;;;;;;;;17.10;99.90;;;;;;5011641;28;19963;-81
2021/06/27 04:00:08;;;;;;;;;;;17.10;99.90;;;;;;5011792;28;20277;-81
2021/06/27 04:02:34;;;;;;;;;;;17.30;99.90;;;;;;5011091;28;19905;-81
2021/06/27 04:04:59;;;;;;;;;;;17.40;99.90;;;;;;5012777;28;19951;-81
2021/06/27 04:07:25;;;;;;;;;;;17.50;99.90;;;;;;5011448;28;20265;-81
2021/06/27 04:09:50;;;;;;;;;;;17.50;99.90;;;;;;5012108;28;19928;-82
2021/06/27 04:12:16;;;;;;;;;;;17.60;99.90;;;;;;5012071;28;19948;-82
2021/06/27 04:14:41;;;;;;;;;;;17.60;99.90;;;;;;5012219;28;19909;-82
2021/06/27 04:17:07;;;;;;;;;;;17.70;99.90;;;;;;5013155;28;19913;-81
2021/06/27 04:19:32;;;;;;;;;;;17.70;99.90;;;;;;5012633;28;20411;-81
2021/06/27 04:21:58;;;;;;;;;;;17.80;99.90;;;;;;5013574;28;19906;-82
2021/06/27 04:24:23;;;;;;;;;;;17.80;99.90;;;;;;5014029;28;19905;-82
2021/06/27 04:26:49;;;;;;;;;;;17.80;99.90;;;;;;5012401;28;19948;-82
2021/06/27 04:29:16;;;;;;;;;;;17.70;99.90;;;;;;5012669;28;20272;-81
2021/06/27 04:31:42;;;;;;;;;;;17.70;99.90;;;;;;5012520;28;20387;-82
2021/06/27 04:34:09;;;;;;;;;;;17.70;99.90;;;;;;5015032;28;19905;-81
2021/06/27 04:36:34;;;;;;;;;;;17.80;99.90;;;;;;5015626;28;20368;-81
2021/06/27 04:39:00;;;;;;;;;;;17.70;99.90;;;;;;5015941;28;19955;-82
2021/06/27 04:41:25;;;;;;;;;;;17.70;99.90;;;;;;5016077;28;19906;-81
2021/06/27 04:43:51;;;;;;;;;;;17.70;99.90;;;;;;5014869;28;20033;-81
2021/06/27 04:46:17;;;;;;;;;;;17.70;99.90;;;;;;5014503;28;19912;-81
2021/06/27 04:48:42;;;;;;;;;;;17.80;99.90;;;;;;5014560;28;19916;-82
2021/06/27 04:51:09;;;;;;;;;;;18.00;99.90;;;;;;5014871;28;19921;-81
2021/06/27 04:53:34;;;;;;;;;;;18.80;99.90;;;;;;5014078;28;19996;-82
2021/06/27 04:56:00;;;;;;;;;;;19.50;99.90;;;;;;5014502;28;19905;-82
2021/06/27 04:58:26;;;;;;;;;;;19.40;99.90;;;;;;5016461;28;19910;-81
2021/06/27 05:00:51;;;;;;;;;;;19.00;99.90;;;;;;5016312;28;19948;-81
2021/06/27 05:03:16;;;;;;;;;;;18.80;99.90;;;;;;5014385;28;20383;-82
2021/06/27 05:05:42;;;;;;;;;;;19.10;99.90;;;;;;5014802;28;19963;-82
2021/06/27 05:08:07;;;;;;;;;;;19.40;99.90;;;;;;5014758;28;19905;-81
2021/06/27 05:10:33;;;;;;;;;;;19.60;99.90;;;;;;5016056;28;20288;-82
2021/06/27 05:12:58;;;;;;;;;;;19.80;99.90;;;;;;5014208;28;19992;-81
2021/06/27 05:15:24;;;;;;;;;;;19.90;99.90;;;;;;5014890;28;19912;-81
2021/06/27 05:17:49;;;;;;;;;;;20.10;99.90;;;;;;5013806;28;19932;-81
2021/06/27 05:20:15;;;;;;;;;;;20.30;99.90;;;;;;5013450;28;20253;-82
2021/06/27 05:22:40;;;;;;;;;;;20.30;99.90;;;;;;5015027;28;19906;-82
2021/06/27 05:25:06;;;;;;;;;;;20.40;99.90;;;;;;5014789;28;19936;-82
2021/06/27 05:27:32;;;;;;;;;;;20.30;99.90;;;;;;5014170;28;19928;-81
2021/06/27 05:29:57;;;;;;;;;;;20.00;99.90;;;;;;5012690;28;19912;-82
2021/06/27 05:32:22;;;;;;;;;;;19.80;99.90;;;;;;5013270;28;19909;-81
2021/06/27 05:34:48;;;;;;;;;;;19.80;99.90;;;;;;5014116;28;25113;-81
2021/06/27 05:37:13;;;;;;;;;;;20.00;99.90;;;;;;5013655;28;19906;-82
2021/06/27 05:39:39;;;;;;;;;;;20.30;99.90;;;;;;5012597;28;20427;-82
2021/06/27 05:42:05;;;;;;;;;;;20.40;99.90;;;;;;5012761;28;19905;-81
2021/06/27 05:44:31;;;;;;;;;;;20.80;99.90;;;;;;5011049;28;19964;-82
2021/06/27 05:46:56;;;;;;;;;;;21.50;99.90;;;;;;5013164;28;19910;-82
2021/06/27 05:49:22;;;;;;;;;;;21.80;99.90;;;;;;5014236;28;19982;-81
2021/06/27 05:51:47;;;;;;;;;;;22.20;99.90;;;;;;5013380;28;20288;-83
2021/06/27 05:54:13;;;;;;;;;;;22.30;99.90;;;;;;5012972;28;19999;-81
2021/06/27 05:56:38;;;;;;;;;;;22.20;99.90;;;;;;5013259;28;20470;-82
2021/06/27 05:59:04;;;;;;;;;;;22.30;99.90;;;;;;5013183;28;20032;-81
2021/06/27 06:01:30;;;;;;;;;;;22.30;99.90;;;;;;5013141;28;20104;-82
2021/06/27 06:03:55;;;;;;;;;;;22.40;99.90;;;;;;5011930;28;19905;-83
2021/06/27 06:06:21;;;;;;;;;;;22.70;99.90;;;;;;5011900;28;20039;-82
2021/06/27 06:08:46;;;;;;;;;;;22.60;99.90;;;;;;5011652;28;20093;-82
2021/06/27 06:11:13;;;;;;;;;;;22.60;99.90;;;;;;5012193;28;19909;-81
2021/06/27 06:13:39;;;;;;;;;;;22.70;99.90;;;;;;5012253;28;20069;-82
2021/06/27 06:16:06;;;;;;;;;;;22.60;99.90;;;;;;5013606;28;19905;-82
2021/06/27 06:18:32;;;;;;;;;;;22.80;99.90;;;;;;5012550;28;20356;-81
2021/06/27 06:20:58;;;;;;;;;;;23.00;99.90;;;;;;5014272;28;20038;-81
2021/06/27 06:23:23;;;;;;;;;;;23.10;99.90;;;;;;5013719;28;19916;-82
2021/06/27 06:25:49;;;;;;;;;;;23.20;99.90;;;;;;5013548;28;19906;-81
2021/06/27 06:28:14;;;;;;;;;;;23.70;99.90;;;;;;5013718;28;20340;-82
2021/06/27 06:30:40;;;;;;;;;;;23.60;99.90;;;;;;5012812;28;20291;-81
2021/06/27 06:33:10;;;;;;;;;;;23.50;99.90;;;;;;5013099;28;20046;-82
2021/06/27 06:35:39;;;;;;;;;;;23.20;99.90;;;;;;5013598;28;19943;-81
2021/06/27 06:38:05;;;;;;;;;;;23.20;99.90;;;;;;5012423;28;20029;-82
2021/06/27 06:40:30;;;;;;;;;;;23.70;99.90;;;;;;5012074;28;19912;-81
2021/06/27 06:42:56;;;;;;;;;;;24.20;99.90;;;;;;5011439;28;20021;-81
2021/06/27 06:45:21;;;;;;;;;;;24.80;99.90;;;;;;5011379;28;25089;-82
2021/06/27 06:47:47;;;;;;;;;;;25.70;99.90;;;;;;5012508;28;20032;-81
2021/06/27 06:50:12;;;;;;;;;;;27.00;99.90;;;;;;5012854;28;20054;-82
2021/06/27 06:52:38;;;;;;;;;;;29.20;99.90;;;;;;5012884;28;19909;-81
2021/06/27 06:55:03;;;;;;;;;;;30.00;99.90;;;;;;5011452;28;19960;-82
2021/06/27 06:57:29;;;;;;;;;;;28.30;99.90;;;;;;5011790;28;20012;-82
2021/06/27 06:59:54;;;;;;;;;;;27.10;99.90;;;;;;5011365;28;24127;-81
2021/06/27 07:02:20;;;;;;;;;;;26.60;99.90;;;;;;5013596;28;19905;-81
2021/06/27 07:04:45;;;;;;;;;;;26.30;99.90;;;;;;5012588;28;19912;-82
2021/06/27 07:07:11;;;;;;;;;;;26.30;99.90;;;;;;5012311;28;20221;-81
2021/06/27 07:09:36;;;;;;;;;;;25.90;99.90;;;;;;5012048;28;24161;-81
2021/06/27 07:12:02;;;;;;;;;;;25.70;99.90;;;;;;5011920;28;24088;-82
2021/06/27 07:14:27;;;;;;;;;;;25.60;99.90;;;;;;5012108;28;19905;-82
2021/06/27 07:16:53;;;;;;;;;;;25.60;99.90;;;;;;5012902;28;20008;-82
2021/06/27 07:19:18;;;;;;;;;;;25.60;99.90;;;;;;5012611;28;19909;-82
2021/06/27 07:21:45;;;;;;;;;;;25.70;99.90;;;;;;5012484;28;20489;-81
2021/06/27 07:24:11;;;;;;;;;;;25.90;99.90;;;;;;5012378;28;25112;-82
2021/06/27 07:26:36;;;;;;;;;;;26.30;99.90;;;;;;5013981;28;24152;-81
2021/06/27 07:29:01;;;;;;;;;;;25.90;99.90;;;;;;5012157;28;19909;-81
2021/06/27 07:31:27;;;;;;;;;;;26.40;99.90;;;;;;5012951;28;20364;-82
2021/06/27 07:33:52;;;;;;;;;;;26.60;99.90;;;;;;5013197;28;19932;-81
2021/06/27 07:36:18;;;;;;;;;;;26.70;99.90;;;;;;5011795;28;20587;-82
2021/06/27 07:38:43;;;;;;;;;;;27.40;99.90;;;;;;5011351;28;19917;-82
2021/06/27 07:41:09;;;;;;;;;;;27.70;99.90;;;;;;5012001;28;19991;-83
2021/06/27 07:43:35;;;;;;;;;;;27.40;99.90;;;;;;5011430;28;20391;-82
2021/06/27 07:46:01;;;;;;;;;;;27.20;99.90;;;;;;5012230;28;20385;-81
2021/06/27 07:48:26;;;;;;;;;;;27.20;99.90;;;;;;5012019;28;20369;-81
2021/06/27 07:50:52;;;;;;;;;;;27.00;99.90;;;;;;5012442;28;19905;-82
2021/06/27 07:53:17;;;;;;;;;;;27.50;99.90;;;;;;5013301;28;19912;-82
2021/06/27 07:55:43;;;;;;;;;;;27.60;99.90;;;;;;5013511;28;24059;-82
2021/06/27 07:58:08;;;;;;;;;;;27.50;99.90;;;;;;5013844;28;20254;-81
2021/06/27 08:00:34;;;;;;;;;;;27.10;99.90;;;;;;5011979;28;24056;-81
2021/06/27 08:03:00;;;;;;;;;;;27.10;99.90;;;;;;5011558;28;24054;-81
2021/06/27 08:05:26;;;;;;;;;;;26.20;99.90;;;;;;5013831;28;19905;-81
2021/06/27 08:07:51;;;;;;;;;;;26.70;99.90;;;;;;5012995;28;20042;-82
2021/06/27 08:10:17;;;;;;;;;;;27.40;99.90;;;;;;5015718;28;19912;-82
2021/06/27 08:12:43;;;;;;;;;;;27.70;99.90;;;;;;5015505;28;20044;-82
2021/06/27 08:15:10;;;;;;;;;;;27.90;99.90;;;;;;5016030;28;20008;-82
2021/06/27 08:17:35;;;;;;;;;;;28.40;99.90;;;;;;5016901;28;24109;-81
2021/06/27 08:20:03;;;;;;;;;;;28.40;99.90;;;;;;5015729;28;25150;-81
2021/06/27 08:22:28;;;;;;;;;;;28.00;99.90;;;;;;5015131;28;19906;-81
2021/06/27 08:24:54;;;;;;;;;;;28.00;99.90;;;;;;5017102;28;20283;-81
2021/06/27 08:27:19;;;;;;;;;;;27.90;99.90;;;;;;5015743;28;19963;-81
2021/06/27 08:29:45;;;;;;;;;;;27.90;99.90;;;;;;5015463;28;19968;-81
2021/06/27 08:32:10;;;;;;;;;;;28.50;99.90;;;;;;5014855;28;19916;-82
2021/06/27 08:34:36;;;;;;;;;;;28.50;99.90;;;;;;5015088;28;20041;-81
2021/06/27 08:37:01;;;;;;;;;;;28.30;99.90;;;;;;5015133;28;19905;-81
2021/06/27 08:39:26;;;;;;;;;;;28.30;99.90;;;;;;5015333;28;20279;-81
2021/06/27 08:41:53;;;;;;;;;;;28.20;99.90;;;;;;5014723;28;19913;-81
2021/06/27 08:44:19;;;;;;;;;;;28.50;99.90;;;;;;5014260;28;20000;-81
2021/06/27 08:46:44;;;;;;;;;;;28.70;99.90;;;;;;5014712;28;19948;-81
2021/06/27 08:49:11;;;;;;;;;;;29.30;99.90;;;;;;5015827;28;19956;-81
2021/06/27 08:51:39;;;;;;;;;;;29.10;99.90;;;;;;5015217;28;24061;-82
2021/06/27 08:54:04;;;;;;;;;;;29.10;99.90;;;;;;5014831;28;20021;-82
2021/06/27 08:56:30;;;;;;;;;;;29.00;99.90;;;;;;5014643;28;20034;-82
2021/06/27 08:58:55;;;;;;;;;;;29.00;99.90;;;;;;5014662;28;19909;-82
2021/06/27 09:01:21;;;;;;;;;;;28.80;99.90;;;;;;5014689;28;20368;-82
2021/06/27 09:03:48;;;;;;;;;;;28.10;99.90;;;;;;5015410;28;19932;-82
2021/06/27 09:06:29;;;;;;;;;;;27.70;99.90;;;;;;5019504;28;19909;-81
2021/06/27 09:09:13;;;;;;;;;;;28.10;99.90;;;;;;5018832;28;19909;-82
2021/06/27 09:11:58;;;;;;;;;;;28.80;99.90;;;;;;5019717;28;19905;-82
2021/06/27 09:14:30;;;;;;;;;;;28.80;99.90;;;;;;5018302;28;20416;-81
2021/06/27 09:17:13;;;;;;;;;;;28.50;99.90;;;;;;5020588;28;20368;-82
2021/06/27 09:19:51;;;;;;;;;;;28.40;99.90;;;;;;5022357;28;20387;-81
2021/06/27 09:22:16;;;;;;;;;;;28.80;99.90;;;;;;5017910;28;20016;-81
2021/06/27 09:24:43;;;;;;;;;;;29.50;99.90;;;;;;5017066;28;20500;-81
2021/06/27 09:27:18;;;;;;;;;;;29.60;99.90;;;;;;5021940;28;24075;-81
2021/06/27 09:29:44;;;;;;;;;;;29.00;99.90;;;;;;5019720;28;19917;-80
2021/06/27 09:32:16;;;;;;;;;;;29.30;99.90;;;;;;5019215;28;19906;-82
2021/06/27 09:34:42;;;;;;;;;;;28.60;99.90;;;;;;5021169;28;19927;-80
2021/06/27 09:37:08;;;;;;;;;;;28.60;99.90;;;;;;5020474;28;20054;-82
2021/06/27 09:39:34;;;;;;;;;;;28.80;99.90;;;;;;5020653;28;20360;-81
2021/06/27 09:42:03;;;;;;;;;;;29.00;99.90;;;;;;5017736;28;19931;-81
2021/06/27 09:44:29;;;;;;;;;;;29.20;99.90;;;;;;5017776;28;20062;-81
2021/06/27 09:46:55;;;;;;;;;;;29.30;99.90;;;;;;5020604;28;19906;-81
2021/06/27 09:49:32;;;;;;;;;;;29.30;99.90;;;;;;5017408;28;19940;-82
2021/06/27 09:51:58;;;;;;;;;;;29.50;99.90;;;;;;5018224;28;19906;-82
2021/06/27 09:54:25;;;;;;;;;;;29.30;99.90;;;;;;5020182;28;20129;-82
2021/06/27 09:56:51;;;;;;;;;;;29.90;99.90;;;;;;5018863;28;20307;-82
2021/06/27 09:59:36;;;;;;;;;;;30.10;99.90;;;;;;5018324;28;19910;-82
2021/06/27 10:02:02;;;;;;;;;;;29.40;99.90;;;;;;5019985;28;25125;-82
2021/06/27 10:04:29;;;;;;;;;;;29.20;99.90;;;;;;5017391;28;19905;-81
2021/06/27 10:06:55;;;;;;;;;;;28.60;99.90;;;;;;5020601;28;19916;-81
2021/06/27 10:09:23;;;;;;;;;;;28.90;99.90;;;;;;5016763;28;20349;-81
2021/06/27 10:12:07;;;;;;;;;;;30.00;99.90;;;;;;5018197;28;20385;-81
2021/06/27 10:14:48;;;;;;;;;;;30.30;99.90;;;;;;5018970;28;19905;-82
2021/06/27 10:17:14;;;;;;;;;;;30.00;99.90;;;;;;5017621;28;20375;-81
2021/06/27 10:19:40;;;;;;;;;;;30.30;99.90;;;;;;5018597;28;20486;-82
2021/06/27 10:22:05;;;;;;;;;;;30.10;99.90;;;;;;5017569;28;20033;-81
2021/06/27 10:24:31;;;;;;;;;;;29.90;99.90;;;;;;5018148;28;24099;-82
2021/06/27 10:26:57;;;;;;;;;;;29.60;99.90;;;;;;5021038;28;20426;-81
2021/06/27 10:29:23;;;;;;;;;;;29.40;99.90;;;;;;5018808;28;20609;-82
2021/06/27 10:31:51;;;;;;;;;;;29.10;99.90;;;;;;5015387;28;20008;-82
2021/06/27 10:34:16;;;;;;;;;;;29.50;99.90;;;;;;5019599;28;24093;-81
2021/06/27 10:36:43;;;;;;;;;;;29.80;99.90;;;;;;5017233;28;24072;-81
2021/06/27 10:39:13;;;;;;;;;;;29.40;99.90;;;;;;5016838;28;19909;-81
2021/06/27 10:41:51;;;;;;;;;;;29.30;99.90;;;;;;5018713;28;19909;-82
2021/06/27 10:44:18;;;;;;;;;;;29.10;99.90;;;;;;5018157;28;19955;-82
2021/06/27 10:46:44;;;;;;;;;;;29.10;99.90;;;;;;5017632;28;20394;-81
2021/06/27 10:49:29;;;;;;;;;;;29.60;99.90;;;;;;5017315;28;19906;-82
2021/06/27 10:51:58;;;;;;;;;;;29.60;99.90;;;;;;5018198;28;19909;-82
2021/06/27 10:54:23;;;;;;;;;;;29.40;99.90;;;;;;5018595;28;19963;-81
2021/06/27 10:57:06;;;;;;;;;;;29.20;99.90;;;;;;5017875;28;19909;-81
2021/06/27 10:59:54;;;;;;;;;;;29.20;99.90;;;;;;5015615;28;19909;-81
2021/06/27 11:02:31;;;;;;;;;;;29.30;99.90;;;;;;5009806;28;19906;-81
2021/06/27 11:05:16;;;;;;;;;;;29.20;99.90;;;;;;5015435;28;19957;-83
2021/06/27 11:07:45;;;;;;;;;;;29.10;99.90;;;;;;5014829;28;19988;-82
2021/06/27 11:10:23;;;;;;;;;;;28.80;99.90;;;;;;5016615;28;20280;-81
2021/06/27 11:12:54;;;;;;;;;;;28.90;99.90;;;;;;5014398;28;19928;-81
2021/06/27 11:15:20;;;;;;;;;;;29.80;99.90;;;;;;5017781;28;19927;-82
2021/06/27 11:17:58;;;;;;;;;;;30.30;99.90;;;;;;5015329;28;20436;-82
2021/06/27 11:20:25;;;;;;;;;;;30.80;99.50;;;;;;5015686;28;19909;-81
2021/06/27 11:22:56;;;;;;;;;;;30.50;99.80;;;;;;5015525;28;19906;-81
2021/06/27 11:25:34;;;;;;;;;;;30.40;99.90;;;;;;5016450;28;19905;-82
2021/06/27 11:28:18;;;;;;;;;;;30.30;99.80;;;;;;5017596;28;20284;-81
2021/06/27 11:30:51;;;;;;;;;;;30.30;98.60;;;;;;5017201;28;19999;-82
2021/06/27 11:33:22;;;;;;;;;;;30.40;99.90;;;;;;5017018;28;19905;-82
2021/06/27 11:35:48;;;;;;;;;;;30.80;98.10;;;;;;5015878;28;20323;-81
2021/06/27 11:38:32;;;;;;;;;;;31.20;99.90;;;;;;5017396;28;19913;-82
2021/06/27 11:40:58;;;;;;;;;;;31.30;99.50;;;;;;5014729;28;20364;-83
2021/06/27 11:43:43;;;;;;;;;;;31.20;96.60;;;;;;5013811;28;19917;-81
2021/06/27 11:46:27;;;;;;;;;;;31.30;98.20;;;;;;5019078;28;20077;-82
2021/06/27 11:48:53;;;;;;;2.47;2.15;;;31.30;99.40;;;;;;5020632;28;19906;-82
2021/06/27 11:51:18;;;;;;;2.05;1.95;;;31.30;96.30;;;;;;5020484;28;20022;-81
2021/06/27 11:53:47;;;;;;;3.90;2.28;;;31.50;96.50;;;;;;5018189;28;20492;-82
2021/06/27 11:56:15;;;;;;;2.28;2.08;;;31.70;96.90;;;;;;5018408;28;20100;-83
2021/06/27 11:58:40;;;;;;;1.55;1.45;;;31.00;96.40;;;;;;5019311;28;20076;-82
2021/06/27 12:01:08;;;;;;;1.90;1.80;;;30.80;96.10;;;;;;5019136;28;20026;-81
2021/06/27 12:03:34;;;;;;;3.25;2.30;;;30.70;95.70;;;;;;5018622;28;20030;-81
2021/06/27 12:06:02;;;;;;;1.83;1.73;;;30.60;97.50;;;;;;5021577;28;20022;-83
2021/06/27 12:08:29;;;;;;;2.50;2.30;;;31.20;99.70;;;;;;5019620;28;20429;-81
2021/06/27 12:10:58;;;;;;;2.22;2.05;;;31.50;99.90;;;;;;5019470;28;20083;-82
2021/06/27 12:13:25;;;;;;;2.50;2.30;;;31.90;96.30;;;;;;5019957;28;20038;-83
2021/06/27 12:15:54;;;;;;;2.42;2.20;;;31.20;96.50;;;;;;5019754;28;20025;-83
2021/06/27 12:18:21;;;;;;;2.17;2.00;;;30.80;96.90;;;;;;5019534;28;20030;-82
2021/06/27 12:20:56;;;;;;;2.60;2.40;;;30.40;98.60;;;;;;5021007;28;20492;-83
2021/06/27 12:23:32;;;;;;;2.70;2.50;;;30.20;97.00;;;;;;5020763;28;20026;-81
2021/06/27 12:26:03;;;;;;;2.75;2.55;;;30.00;98.40;;;;;;5019966;28;20088;-83
2021/06/27 12:28:47;;;;;;;2.40;2.20;;;30.40;97.60;;;;;;5020365;28;20034;-82
2021/06/27 12:31:19;;;;;;;2.33;1.92;;;30.40;96.50;;;;;;5022109;28;20025;-83
2021/06/27 12:33:50;;;;;;;2.42;2.22;;;30.60;97.40;;;;;;5022015;28;20053;-83
2021/06/27 12:36:22;;;;;;;2.67;2.40;;;31.00;96.80;;;;;;5021304;28;20555;-83
2021/06/27 12:38:50;;;;;;;2.53;2.10;;;31.30;95.70;;;;;;5023206;28;20029;-82
2021/06/27 12:41:21;;;;;;;2.50;2.30;;;31.10;95.50;;;;;;5024157;28;20014;-81
2021/06/27 12:44:03;;;;;;;3.53;2.30;;;31.00;96.20;;;;;;5023514;28;20098;-82
2021/06/27 12:46:37;;;;;;;2.17;2.00;;;31.00;94.70;;;;;;5021567;28;20018;-82
2021/06/27 12:49:03;;;;;;;3.08;2.22;;;30.80;96.10;;;;;;5019973;28;20266;-82
2021/06/27 12:51:44;;;;;;;2.28;1.67;;;30.60;96.30;;;;;;5018311;28;20033;-82
2021/06/27 12:54:28;;;;;;;2.28;2.08;;;30.60;97.40;;;;;;5015185;28;20030;-81
2021/06/27 12:57:03;;;;;;;2.13;1.92;;;30.50;97.00;;;;;;5017441;28;20025;-83
2021/06/27 12:59:35;;;;;;;2.20;1.77;;;30.80;95.00;;;;;;5017389;28;20029;-82
2021/06/27 13:02:27;;;;;;;2.22;2.03;;;30.40;96.50;;;;;;5016376;28;20028;-82
2021/06/27 13:05:04;;;;;;;1.60;1.50;;;30.60;95.50;;;;;;5018283;28;20109;-83
2021/06/27 13:07:39;;;;;;;2.40;2.20;;;30.40;94.90;;;;;;5016484;28;20028;-82
2021/06/27 13:10:18;;;;;;;2.42;1.88;;;30.10;96.00;;;;;;5018719;28;20120;-83
2021/06/27 13:12:57;;;;;;;1.83;1.73;;;29.90;95.40;;;;;;5016023;28;20026;-82
2021/06/27 13:15:32;;;;;;;2.28;1.92;;;29.90;95.80;;;;;;5018035;28;20045;-83
2021/06/27 13:18:10;;;;;;;1.95;1.83;;;30.10;96.50;;;;;;5014672;28;20108;-81
2021/06/27 13:20:36;;;;;;;3.17;2.17;;;30.00;96.90;;;;;;5014887;28;20026;-81
2021/06/27 13:23:06;;;;;;;2.23;2.03;;;29.90;96.80;;;;;;5014609;28;20589;-82
2021/06/27 13:25:32;;;;;;;2.22;2.03;;;30.10;97.10;;;;;;5016670;28;20088;-82
2021/06/27 13:27:59;;;;;;;2.22;1.98;;;30.30;99.80;;;;;;5014416;28;20022;-82
2021/06/27 13:30:25;;;;;;;2.03;1.88;;;30.20;96.50;;;;;;5014602;28;20061;-81
2021/06/27 13:33:10;;;;;;;2.60;2.00;;;30.00;96.70;;;;;;5014850;28;20504;-81
2021/06/27 13:35:43;;;;;;;2.20;2.00;;;30.00;97.10;;;;;;5014260;28;20280;-80
2021/06/27 13:38:13;;;;;;;2.20;2.00;;;30.20;97.10;;;;;;5016175;28;20034;-81
2021/06/27 13:40:43;;;;;;;1.85;1.75;;;30.10;96.40;;;;;;5014605;28;20491;-80
2021/06/27 13:43:09;;;;;;;2.10;2.00;;;29.80;97.10;;;;;;5014380;28;20491;-81
2021/06/27 13:45:35;;;;;;;2.20;2.10;;;29.60;98.40;;;;;;5014354;28;20025;-81
2021/06/27 13:48:00;;;;;;;;;;;29.30;96.00;;;;;;5014268;28;20044;-81
2021/06/27 13:50:27;;;;;;;;;;;29.10;97.20;;;;;;5015788;28;19912;-82
2021/06/27 13:52:53;;;;;;;;;;;29.20;97.00;;;;;;5015878;28;19906;-82
2021/06/27 13:55:20;;;;;;;;;;;29.40;96.90;;;;;;5015133;28;19905;-81
2021/06/27 13:57:46;;;;;;;;;;;29.80;97.50;;;;;;5013337;28;20043;-82
2021/06/27 14:00:12;;;;;;;;;;;30.20;96.20;;;;;;5012996;28;20410;-83
2021/06/27 14:02:38;;;;;;;;;;;30.60;95.80;;;;;;5012810;28;24158;-82
2021/06/27 14:05:05;;;;;;;;;;;30.60;95.00;;;;;;5013794;28;19909;-81
2021/06/27 14:07:31;;;;;;;;;;;30.20;95.70;;;;;;5014110;28;19905;-81
2021/06/27 14:09:57;;;;;;;;;;;29.70;96.70;;;;;;5014200;28;20332;-81